nws-alerts: Checking more than four warning/county codes can delay the loading of your pages. You should use a cron job to get the data.
EllijayWeather Station Historical Data
Daily Summary for November 23, 2018 Units:  Both    English   Metric
Daily Weekly Monthly Yearly Custom
  High: Low: Average:
Temperature: 46.8 °F /  8.2 °C 34.5 °F /  1.4 °C 41.6 °F /  5.3 °C
Dew Point: 37.0 °F /  2.8 °C 21.9 °F /  -5.6 °C 31.9 °F /  -0.1 °C
Humidity: 76% 54% 69%
Wind Speed: 10.1mph /  16.3km/h - 1.7mph /  2.7km/h
Wind Gust: 17.0mph /  27.4km/h - -
Wind- - SE
Pressure: 30.40 in /  1029.3 hPa 30.05 in /  1017.5 hPa -
Precipitation: 0.01 in /  0.25 mm    
Historical Graphs
 
 
Tabular Data for November 23, 2018
Time Temperature Dew Point Pressure Wind Wind Speed Wind Gust Humidity Rainfall Rate (Hourly) solar
00:04 35.8 °F /  2.1 °C 23.7 °F /  -4.6 °C 30.40in /  1029.3hPa Calm     61% 0.00in /  0mm meteobridge W/m2
00:09 35.6 °F /  2 °C 23.5 °F /  -4.7 °C 30.40in /  1029.3hPa Calm     61% 0.00in /  0mm meteobridge W/m2
00:14 35.4 °F /  1.9 °C 23.4 °F /  -4.8 °C 30.40in /  1029.3hPa Calm     61% 0.00in /  0mm meteobridge W/m2
00:19 35.4 °F /  1.9 °C 23.4 °F /  -4.8 °C 30.40in /  1029.3hPa Calm     61% 0.00in /  0mm meteobridge W/m2
00:24 35.2 °F /  1.8 °C 23.2 °F /  -4.9 °C 30.40in /  1029.3hPa Calm     61% 0.00in /  0mm meteobridge W/m2
00:29 35.1 °F /  1.7 °C 23.0 °F /  -5 °C 30.40in /  1029.3hPa Calm     61% 0.00in /  0mm meteobridge W/m2
00:34 35.1 °F /  1.7 °C 23.0 °F /  -5 °C 30.40in /  1029.3hPa Calm     61% 0.00in /  0mm meteobridge W/m2
00:39 34.9 °F /  1.6 °C 22.8 °F /  -5.1 °C 30.40in /  1029.3hPa Calm     61% 0.00in /  0mm meteobridge W/m2
00:44 34.9 °F /  1.6 °C 22.8 °F /  -5.1 °C 30.39in /  1029hPa Calm     61% 0.00in /  0mm meteobridge W/m2
00:49 34.9 °F /  1.6 °C 22.8 °F /  -5.1 °C 30.39in /  1029hPa Calm     61% 0.00in /  0mm meteobridge W/m2
00:54 34.9 °F /  1.6 °C 22.5 °F /  -5.3 °C 30.39in /  1029hPa Calm     60% 0.00in /  0mm meteobridge W/m2
00:59 34.9 °F /  1.6 °C 22.5 °F /  -5.3 °C 30.39in /  1029hPa Calm     60% 0.00in /  0mm meteobridge W/m2
01:04 34.9 °F /  1.6 °C 22.5 °F /  -5.3 °C 30.38in /  1028.7hPa Calm     60% 0.00in /  0mm meteobridge W/m2
01:09 34.9 °F /  1.6 °C 22.5 °F /  -5.3 °C 30.38in /  1028.7hPa Calm     60% 0.00in /  0mm meteobridge W/m2
01:14 34.9 °F /  1.6 °C 21.9 °F /  -5.6 °C 30.38in /  1028.7hPa Calm     59% 0.00in /  0mm meteobridge W/m2
01:19 34.9 °F /  1.6 °C 22.5 °F /  -5.3 °C 30.37in /  1028.3hPa Calm     60% 0.00in /  0mm meteobridge W/m2
01:24 34.7 °F /  1.5 °C 22.3 °F /  -5.4 °C 30.37in /  1028.3hPa Calm     60% 0.00in /  0mm meteobridge W/m2
01:29 34.5 °F /  1.4 °C 22.1 °F /  -5.5 °C 30.37in /  1028.3hPa Calm     60% 0.00in /  0mm meteobridge W/m2
01:34 34.9 °F /  1.6 °C 21.9 °F /  -5.6 °C 30.37in /  1028.3hPa Calm     59% 0.00in /  0mm meteobridge W/m2
01:39 35.2 °F /  1.8 °C 21.9 °F /  -5.6 °C 30.37in /  1028.3hPa Calm     58% 0.00in /  0mm meteobridge W/m2
01:44 35.8 °F /  2.1 °C 22.1 °F /  -5.5 °C 30.37in /  1028.3hPa Calm     57% 0.00in /  0mm meteobridge W/m2
01:49 36.1 °F /  2.3 °C 21.9 °F /  -5.6 °C 30.37in /  1028.3hPa Calm     56% 0.00in /  0mm meteobridge W/m2
01:54 36.3 °F /  2.4 °C 22.1 °F /  -5.5 °C 30.36in /  1028hPa Calm     56% 0.00in /  0mm meteobridge W/m2
01:59 36.5 °F /  2.5 °C 22.3 °F /  -5.4 °C 30.36in /  1028hPa Calm     56% 0.00in /  0mm meteobridge W/m2
02:04 36.9 °F /  2.7 °C 22.6 °F /  -5.2 °C 30.36in /  1028hPa Calm     56% 0.00in /  0mm meteobridge W/m2
02:09 37.2 °F /  2.9 °C 22.5 °F /  -5.3 °C 30.36in /  1028hPa Calm     55% 0.00in /  0mm meteobridge W/m2
02:14 37.6 °F /  3.1 °C 22.8 °F /  -5.1 °C 30.36in /  1028hPa Calm     55% 0.00in /  0mm meteobridge W/m2
02:19 37.6 °F /  3.1 °C 22.8 °F /  -5.1 °C 30.36in /  1028hPa Calm     55% 0.00in /  0mm meteobridge W/m2
02:24 37.8 °F /  3.2 °C 23.0 °F /  -5 °C 30.36in /  1028hPa Calm     55% 0.00in /  0mm meteobridge W/m2
02:29 38.1 °F /  3.4 °C 23.0 °F /  -5 °C 30.36in /  1028hPa Calm     54% 0.00in /  0mm meteobridge W/m2
02:34 38.1 °F /  3.4 °C 23.4 °F /  -4.8 °C 30.36in /  1028hPa Calm     55% 0.00in /  0mm meteobridge W/m2
02:39 38.3 °F /  3.5 °C 23.5 °F /  -4.7 °C 30.36in /  1028hPa Calm     55% 0.00in /  0mm meteobridge W/m2
02:44 38.5 °F /  3.6 °C 23.7 °F /  -4.6 °C 30.36in /  1028hPa Calm     55% 0.00in /  0mm meteobridge W/m2
02:49 38.5 °F /  3.6 °C 23.7 °F /  -4.6 °C 30.36in /  1028hPa Calm     55% 0.00in /  0mm meteobridge W/m2
02:54 38.5 °F /  3.6 °C 23.7 °F /  -4.6 °C 30.36in /  1028hPa Calm     55% 0.00in /  0mm meteobridge W/m2
02:59 38.8 °F /  3.8 °C 24.1 °F /  -4.4 °C 30.36in /  1028hPa Calm     55% 0.00in /  0mm meteobridge W/m2
03:04 38.8 °F /  3.8 °C 24.1 °F /  -4.4 °C 30.36in /  1028hPa Calm     55% 0.00in /  0mm meteobridge W/m2
03:09 38.8 °F /  3.8 °C 24.4 °F /  -4.2 °C 30.36in /  1028hPa Calm     56% 0.00in /  0mm meteobridge W/m2
03:14 39.0 °F /  3.9 °C 24.6 °F /  -4.1 °C 30.35in /  1027.7hPa Calm     56% 0.00in /  0mm meteobridge W/m2
03:19 39.0 °F /  3.9 °C 24.6 °F /  -4.1 °C 30.34in /  1027.3hPa Calm     56% 0.00in /  0mm meteobridge W/m2
03:24 39.0 °F /  3.9 °C 25.2 °F /  -3.8 °C 30.34in /  1027.3hPa Calm     57% 0.00in /  0mm meteobridge W/m2
03:29 39.2 °F /  4 °C 25.2 °F /  -3.8 °C 30.34in /  1027.3hPa Calm   2.0mph /  3.2km/h 57% 0.00in /  0mm meteobridge W/m2
03:34 39.6 °F /  4.2 °C 25.2 °F /  -3.8 °C 30.34in /  1027.3hPa Calm     56% 0.00in /  0mm meteobridge W/m2
03:39 39.7 °F /  4.3 °C 25.7 °F /  -3.5 °C 30.34in /  1027.3hPa Calm     57% 0.00in /  0mm meteobridge W/m2
03:44 40.3 °F /  4.6 °C 26.2 °F /  -3.2 °C 30.34in /  1027.3hPa Calm   2.0mph /  3.2km/h 57% 0.00in /  0mm meteobridge W/m2
03:49 40.5 °F /  4.7 °C 27.3 °F /  -2.6 °C 30.34in /  1027.3hPa Calm   1.0mph /  1.6km/h 59% 0.00in /  0mm meteobridge W/m2
03:54 40.5 °F /  4.7 °C 27.7 °F /  -2.4 °C 30.34in /  1027.3hPa Calm     60% 0.00in /  0mm meteobridge W/m2
03:58 40.6 °F /  4.8 °C 28.2 °F /  -2.1 °C 30.33in /  1027hPa Calm     61% 0.00in /  0mm meteobridge W/m2
04:04 40.8 °F /  4.9 °C 28.8 °F /  -1.8 °C 30.33in /  1027hPa Calm     62% 0.00in /  0mm meteobridge W/m2
04:09 41.2 °F /  5.1 °C 30.0 °F /  -1.1 °C 30.32in /  1026.6hPa Calm     64% 0.00in /  0mm meteobridge W/m2
04:14 41.2 °F /  5.1 °C 30.7 °F /  -0.7 °C 30.33in /  1027hPa Calm     66% 0.00in /  0mm meteobridge W/m2
04:19 41.4 °F /  5.2 °C 31.6 °F /  -0.2 °C 30.32in /  1026.6hPa Calm     68% 0.00in /  0mm meteobridge W/m2
04:24 41.5 °F /  5.3 °C 32.2 °F /  0.1 °C 30.32in /  1026.6hPa Calm     69% 0.00in /  0mm meteobridge W/m2
04:28 41.5 °F /  5.3 °C 32.5 °F /  0.3 °C 30.33in /  1027hPa Calm     70% 0.00in /  0mm meteobridge W/m2
04:34 41.5 °F /  5.3 °C 32.5 °F /  0.3 °C 30.33in /  1027hPa Calm     70% 0.00in /  0mm meteobridge W/m2
04:39 41.4 °F /  5.2 °C 32.4 °F /  0.2 °C 30.33in /  1027hPa Calm     70% 0.00in /  0mm meteobridge W/m2
04:44 41.0 °F /  5 °C 32.0 °F /  0 °C 30.33in /  1027hPa Calm     70% 0.00in /  0mm meteobridge W/m2
04:49 40.8 °F /  4.9 °C 32.2 °F /  0.1 °C 30.33in /  1027hPa Calm     71% 0.00in /  0mm meteobridge W/m2
04:54 41.0 °F /  5 °C 32.7 °F /  0.4 °C 30.33in /  1027hPa Calm     72% 0.00in /  0mm meteobridge W/m2
04:59 41.2 °F /  5.1 °C 33.3 °F /  0.7 °C 30.33in /  1027hPa Calm   1.0mph /  1.6km/h 73% 0.00in /  0mm meteobridge W/m2
05:04 41.2 °F /  5.1 °C 33.3 °F /  0.7 °C 30.33in /  1027hPa SE 0.9mph /  1.4km/h 1.0mph /  1.6km/h 73% 0.00in /  0mm meteobridge W/m2
05:09 41.5 °F /  5.3 °C 33.8 °F /  1 °C 30.33in /  1027hPa Calm     74% 0.00in /  0mm meteobridge W/m2
05:14 41.5 °F /  5.3 °C 34.2 °F /  1.2 °C 30.33in /  1027hPa Calm     75% 0.00in /  0mm meteobridge W/m2
05:18 41.5 °F /  5.3 °C 34.2 °F /  1.2 °C 30.32in /  1026.6hPa SSW 0.9mph /  1.4km/h 5.0mph /  8km/h 75% 0.00in /  0mm meteobridge W/m2
05:24 41.7 °F /  5.4 °C 34.7 °F /  1.5 °C 30.33in /  1027hPa Calm   4.0mph /  6.4km/h 76% 0.00in /  0mm meteobridge W/m2
05:29 41.7 °F /  5.4 °C 34.7 °F /  1.5 °C 30.32in /  1026.6hPa SE 2.0mph /  3.2km/h 5.0mph /  8km/h 76% 0.00in /  0mm meteobridge W/m2
05:34 41.7 °F /  5.4 °C 34.7 °F /  1.5 °C 30.33in /  1027hPa Calm   1.0mph /  1.6km/h 76% 0.00in /  0mm meteobridge W/m2
05:39 41.7 °F /  5.4 °C 34.7 °F /  1.5 °C 30.33in /  1027hPa SE 0.9mph /  1.4km/h 2.0mph /  3.2km/h 76% 0.00in /  0mm meteobridge W/m2
05:44 41.5 °F /  5.3 °C 34.5 °F /  1.4 °C 30.33in /  1027hPa Calm   1.0mph /  1.6km/h 76% 0.00in /  0mm meteobridge W/m2
05:49 41.5 °F /  5.3 °C 34.5 °F /  1.4 °C 30.33in /  1027hPa ESE 2.0mph /  3.2km/h 2.0mph /  3.2km/h 76% 0.00in /  0mm meteobridge W/m2
05:54 41.4 °F /  5.2 °C 34.3 °F /  1.3 °C 30.33in /  1027hPa SE 2.0mph /  3.2km/h 4.0mph /  6.4km/h 76% 0.00in /  0mm meteobridge W/m2
05:59 41.4 °F /  5.2 °C 34.3 °F /  1.3 °C 30.33in /  1027hPa Calm   1.0mph /  1.6km/h 76% 0.00in /  0mm meteobridge W/m2
06:04 41.2 °F /  5.1 °C 34.2 °F /  1.2 °C 30.33in /  1027hPa SE 0.9mph /  1.4km/h 8.0mph /  12.9km/h 76% 0.00in /  0mm meteobridge W/m2
06:09 41.2 °F /  5.1 °C 34.2 °F /  1.2 °C 30.33in /  1027hPa SE 4.9mph /  7.9km/h 7.0mph /  11.3km/h 76% 0.00in /  0mm meteobridge W/m2
06:14 41.2 °F /  5.1 °C 34.2 °F /  1.2 °C 30.33in /  1027hPa East 4.9mph /  7.9km/h 5.0mph /  8km/h 76% 0.00in /  0mm meteobridge W/m2
06:19 41.2 °F /  5.1 °C 34.2 °F /  1.2 °C 30.33in /  1027hPa ESE 4.0mph /  6.4km/h 7.0mph /  11.3km/h 76% 0.00in /  0mm meteobridge W/m2
06:24 41.0 °F /  5 °C 34.0 °F /  1.1 °C 30.33in /  1027hPa ESE 6.9mph /  11.1km/h 8.0mph /  12.9km/h 76% 0.00in /  0mm meteobridge W/m2
06:29 41.0 °F /  5 °C 34.0 °F /  1.1 °C 30.33in /  1027hPa East 4.9mph /  7.9km/h 6.0mph /  9.7km/h 76% 0.00in /  0mm meteobridge W/m2
06:34 40.8 °F /  4.9 °C 33.8 °F /  1 °C 30.33in /  1027hPa ESE 4.9mph /  7.9km/h 7.0mph /  11.3km/h 76% 0.00in /  0mm meteobridge W/m2
06:39 40.8 °F /  4.9 °C 33.8 °F /  1 °C 30.33in /  1027hPa SE 2.0mph /  3.2km/h 2.0mph /  3.2km/h 76% 0.00in /  0mm meteobridge W/m2
06:44 40.6 °F /  4.8 °C 33.6 °F /  0.9 °C 30.33in /  1027hPa Calm   5.0mph /  8km/h 76% 0.00in /  0mm meteobridge W/m2
06:49 40.6 °F /  4.8 °C 33.6 °F /  0.9 °C 30.34in /  1027.3hPa SE 6.0mph /  9.7km/h 7.0mph /  11.3km/h 76% 0.00in /  0mm meteobridge W/m2
06:54 40.6 °F /  4.8 °C 33.6 °F /  0.9 °C 30.33in /  1027hPa ESE 4.0mph /  6.4km/h 4.0mph /  6.4km/h 76% 0.00in /  0mm meteobridge W/m2
06:59 40.6 °F /  4.8 °C 33.6 °F /  0.9 °C 30.33in /  1027hPa SSW 2.0mph /  3.2km/h 5.0mph /  8km/h 76% 0.00in /  0mm meteobridge W/m2
07:04 40.5 °F /  4.7 °C 33.4 °F /  0.8 °C 30.33in /  1027hPa SE 6.0mph /  9.7km/h 11.0mph /  17.7km/h 76% 0.00in /  0mm meteobridge W/m2
07:09 40.5 °F /  4.7 °C 33.4 °F /  0.8 °C 30.33in /  1027hPa ESE 2.0mph /  3.2km/h 5.0mph /  8km/h 76% 0.00in /  0mm meteobridge W/m2
07:14 40.3 °F /  4.6 °C 33.3 °F /  0.7 °C 30.32in /  1026.6hPa SE 0.9mph /  1.4km/h 6.0mph /  9.7km/h 76% 0.00in /  0mm meteobridge W/m2
07:19 40.3 °F /  4.6 °C 33.3 °F /  0.7 °C 30.32in /  1026.6hPa Calm   7.0mph /  11.3km/h 76% 0.00in /  0mm meteobridge W/m2
07:24 40.1 °F /  4.5 °C 33.1 °F /  0.6 °C 30.32in /  1026.6hPa East 2.0mph /  3.2km/h 5.0mph /  8km/h 76% 0.00in /  0mm meteobridge W/m2
07:29 40.1 °F /  4.5 °C 33.1 °F /  0.6 °C 30.33in /  1027hPa SE 6.0mph /  9.7km/h 6.0mph /  9.7km/h 76% 0.00in /  0mm meteobridge W/m2
07:34 39.9 °F /  4.4 °C 32.9 °F /  0.5 °C 30.32in /  1026.6hPa Calm   5.0mph /  8km/h 76% 0.00in /  0mm meteobridge W/m2
07:39 40.1 °F /  4.5 °C 33.1 °F /  0.6 °C 30.32in /  1026.6hPa SE 0.9mph /  1.4km/h 7.0mph /  11.3km/h 76% 0.00in /  0mm meteobridge W/m2
07:44 40.1 °F /  4.5 °C 33.1 °F /  0.6 °C 30.32in /  1026.6hPa Calm   6.0mph /  9.7km/h 76% 0.00in /  0mm meteobridge W/m2
07:49 40.3 °F /  4.6 °C 33.3 °F /  0.7 °C 30.32in /  1026.6hPa SE 0.9mph /  1.4km/h 7.0mph /  11.3km/h 76% 0.00in /  0mm meteobridge W/m2
07:54 40.3 °F /  4.6 °C 33.3 °F /  0.7 °C 30.32in /  1026.6hPa East 2.9mph /  4.7km/h 5.0mph /  8km/h 76% 0.00in /  0mm meteobridge W/m2
07:59 40.5 °F /  4.7 °C 33.4 °F /  0.8 °C 30.33in /  1027hPa SE 4.9mph /  7.9km/h 9.0mph /  14.5km/h 76% 0.00in /  0mm meteobridge W/m2
08:04 40.6 °F /  4.8 °C 33.6 °F /  0.9 °C 30.33in /  1027hPa Calm   7.0mph /  11.3km/h 76% 0.00in /  0mm meteobridge W/m2
08:09 40.8 °F /  4.9 °C 33.8 °F /  1 °C 30.33in /  1027hPa SE 2.0mph /  3.2km/h 8.0mph /  12.9km/h 76% 0.00in /  0mm meteobridge W/m2
08:14 40.8 °F /  4.9 °C 33.4 °F /  0.8 °C 30.33in /  1027hPa Calm   7.0mph /  11.3km/h 75% 0.00in /  0mm meteobridge W/m2
08:19 41.2 °F /  5.1 °C 33.8 °F /  1 °C 30.34in /  1027.3hPa ESE 4.9mph /  7.9km/h 5.0mph /  8km/h 75% 0.00in /  0mm meteobridge W/m2
08:24 41.4 °F /  5.2 °C 34.0 °F /  1.1 °C 30.33in /  1027hPa Calm   11.0mph /  17.7km/h 75% 0.00in /  0mm meteobridge W/m2
08:29 41.4 °F /  5.2 °C 34.0 °F /  1.1 °C 30.33in /  1027hPa SE 2.0mph /  3.2km/h 6.0mph /  9.7km/h 75% 0.00in /  0mm meteobridge W/m2
08:34 41.4 °F /  5.2 °C 34.0 °F /  1.1 °C 30.33in /  1027hPa SSE 10.1mph /  16.3km/h 10.0mph /  16.1km/h 75% 0.00in /  0mm meteobridge W/m2
08:39 41.4 °F /  5.2 °C 34.0 °F /  1.1 °C 30.34in /  1027.3hPa ESE 4.0mph /  6.4km/h 7.0mph /  11.3km/h 75% 0.00in /  0mm meteobridge W/m2
08:44 41.5 °F /  5.3 °C 34.2 °F /  1.2 °C 30.34in /  1027.3hPa SE 6.0mph /  9.7km/h 9.0mph /  14.5km/h 75% 0.00in /  0mm meteobridge W/m2
08:49 41.5 °F /  5.3 °C 34.2 °F /  1.2 °C 30.34in /  1027.3hPa SE 0.9mph /  1.4km/h 5.0mph /  8km/h 75% 0.00in /  0mm meteobridge W/m2
08:54 41.7 °F /  5.4 °C 34.3 °F /  1.3 °C 30.34in /  1027.3hPa SE 6.0mph /  9.7km/h 9.0mph /  14.5km/h 75% 0.00in /  0mm meteobridge W/m2
08:59 41.7 °F /  5.4 °C 34.3 °F /  1.3 °C 30.34in /  1027.3hPa Calm   8.0mph /  12.9km/h 75% 0.00in /  0mm meteobridge W/m2
09:04 41.9 °F /  5.5 °C 34.2 °F /  1.2 °C 30.34in /  1027.3hPa SE 8.1mph /  13km/h 8.0mph /  12.9km/h 74% 0.00in /  0mm meteobridge W/m2
09:09 42.1 °F /  5.6 °C 34.7 °F /  1.5 °C 30.34in /  1027.3hPa ESE 0.9mph /  1.4km/h 10.0mph /  16.1km/h 75% 0.00in /  0mm meteobridge W/m2
09:14 42.3 °F /  5.7 °C 34.5 °F /  1.4 °C 30.34in /  1027.3hPa ESE 0.9mph /  1.4km/h 9.0mph /  14.5km/h 74% 0.00in /  0mm meteobridge W/m2
09:19 42.4 °F /  5.8 °C 34.7 °F /  1.5 °C 30.34in /  1027.3hPa SE 6.0mph /  9.7km/h 10.0mph /  16.1km/h 74% 0.00in /  0mm meteobridge W/m2
09:24 42.6 °F /  5.9 °C 34.9 °F /  1.6 °C 30.34in /  1027.3hPa ESE 4.0mph /  6.4km/h 11.0mph /  17.7km/h 74% 0.00in /  0mm meteobridge W/m2
09:29 43.0 °F /  6.1 °C 34.9 °F /  1.6 °C 30.34in /  1027.3hPa SE 4.0mph /  6.4km/h 6.0mph /  9.7km/h 73% 0.00in /  0mm meteobridge W/m2
09:34 43.3 °F /  6.3 °C 35.2 °F /  1.8 °C 30.34in /  1027.3hPa SE 4.9mph /  7.9km/h 7.0mph /  11.3km/h 73% 0.00in /  0mm meteobridge W/m2
09:39 43.5 °F /  6.4 °C 35.4 °F /  1.9 °C 30.34in /  1027.3hPa Calm   2.0mph /  3.2km/h 73% 0.00in /  0mm meteobridge W/m2
09:44 43.9 °F /  6.6 °C 35.8 °F /  2.1 °C 30.34in /  1027.3hPa Calm   4.0mph /  6.4km/h 73% 0.00in /  0mm meteobridge W/m2
09:49 44.1 °F /  6.7 °C 35.6 °F /  2 °C 30.34in /  1027.3hPa SE 2.0mph /  3.2km/h 6.0mph /  9.7km/h 72% 0.00in /  0mm meteobridge W/m2
09:54 44.1 °F /  6.7 °C 35.6 °F /  2 °C 30.34in /  1027.3hPa Calm   4.0mph /  6.4km/h 72% 0.00in /  0mm meteobridge W/m2
09:59 44.1 °F /  6.7 °C 35.6 °F /  2 °C 30.34in /  1027.3hPa SE 2.0mph /  3.2km/h 4.0mph /  6.4km/h 72% 0.00in /  0mm meteobridge W/m2
10:04 44.2 °F /  6.8 °C 35.8 °F /  2.1 °C 30.34in /  1027.3hPa Calm   6.0mph /  9.7km/h 72% 0.00in /  0mm meteobridge W/m2
10:09 44.2 °F /  6.8 °C 35.8 °F /  2.1 °C 30.34in /  1027.3hPa East 2.0mph /  3.2km/h 6.0mph /  9.7km/h 72% 0.00in /  0mm meteobridge W/m2
10:14 44.2 °F /  6.8 °C 35.8 °F /  2.1 °C 30.34in /  1027.3hPa SE 2.0mph /  3.2km/h 10.0mph /  16.1km/h 72% 0.00in /  0mm meteobridge W/m2
10:19 44.2 °F /  6.8 °C 36.1 °F /  2.3 °C 30.33in /  1027hPa Calm   6.0mph /  9.7km/h 73% 0.00in /  0mm meteobridge W/m2
10:23 44.2 °F /  6.8 °C 36.1 °F /  2.3 °C 30.34in /  1027.3hPa SE 4.0mph /  6.4km/h 9.0mph /  14.5km/h 73% 0.00in /  0mm meteobridge W/m2
10:29 44.4 °F /  6.9 °C 36.3 °F /  2.4 °C 30.33in /  1027hPa Calm   5.0mph /  8km/h 73% 0.00in /  0mm meteobridge W/m2
10:34 44.6 °F /  7 °C 36.1 °F /  2.3 °C 30.33in /  1027hPa SE 4.9mph /  7.9km/h 8.0mph /  12.9km/h 72% 0.00in /  0mm meteobridge W/m2
10:39 44.6 °F /  7 °C 36.1 °F /  2.3 °C 30.32in /  1026.6hPa East 2.0mph /  3.2km/h 9.0mph /  14.5km/h 72% 0.00in /  0mm meteobridge W/m2
10:44 44.8 °F /  7.1 °C 36.7 °F /  2.6 °C 30.33in /  1027hPa ESE 2.0mph /  3.2km/h 8.0mph /  12.9km/h 73% 0.00in /  0mm meteobridge W/m2
10:49 45.0 °F /  7.2 °C 36.5 °F /  2.5 °C 30.33in /  1027hPa ESE 4.0mph /  6.4km/h 6.0mph /  9.7km/h 72% 0.00in /  0mm meteobridge W/m2
10:54 45.0 °F /  7.2 °C 36.5 °F /  2.5 °C 30.34in /  1027.3hPa SE 4.9mph /  7.9km/h 9.0mph /  14.5km/h 72% 0.00in /  0mm meteobridge W/m2
10:59 44.8 °F /  7.1 °C 36.3 °F /  2.4 °C 30.33in /  1027hPa SE 0.9mph /  1.4km/h 11.0mph /  17.7km/h 72% 0.00in /  0mm meteobridge W/m2
11:04 44.6 °F /  7 °C 36.1 °F /  2.3 °C 30.33in /  1027hPa Calm   8.0mph /  12.9km/h 72% 0.00in /  0mm meteobridge W/m2
11:09 44.8 °F /  7.1 °C 36.7 °F /  2.6 °C 30.32in /  1026.6hPa SE 4.9mph /  7.9km/h 9.0mph /  14.5km/h 73% 0.00in /  0mm meteobridge W/m2
11:14 44.8 °F /  7.1 °C 36.7 °F /  2.6 °C 30.32in /  1026.6hPa East 0.9mph /  1.4km/h 6.0mph /  9.7km/h 73% 0.00in /  0mm meteobridge W/m2
11:19 44.8 °F /  7.1 °C 36.7 °F /  2.6 °C 30.31in /  1026.3hPa SE 8.1mph /  13km/h 10.0mph /  16.1km/h 73% 0.00in /  0mm meteobridge W/m2
11:24 45.0 °F /  7.2 °C 36.9 °F /  2.7 °C 30.31in /  1026.3hPa Calm   4.0mph /  6.4km/h 73% 0.00in /  0mm meteobridge W/m2
11:29 45.1 °F /  7.3 °C 36.7 °F /  2.6 °C 30.31in /  1026.3hPa SE 4.0mph /  6.4km/h 6.0mph /  9.7km/h 72% 0.00in /  0mm meteobridge W/m2
11:34 45.3 °F /  7.4 °C 36.9 °F /  2.7 °C 30.31in /  1026.3hPa ESE 2.0mph /  3.2km/h 8.0mph /  12.9km/h 72% 0.00in /  0mm meteobridge W/m2
11:39 45.7 °F /  7.6 °C 36.9 °F /  2.7 °C 30.30in /  1026hPa ESE 2.0mph /  3.2km/h 7.0mph /  11.3km/h 71% 0.00in /  0mm meteobridge W/m2
11:44 45.9 °F /  7.7 °C 36.7 °F /  2.6 °C 30.30in /  1026hPa Calm   2.0mph /  3.2km/h 70% 0.00in /  0mm meteobridge W/m2
11:49 45.9 °F /  7.7 °C 36.7 °F /  2.6 °C 30.30in /  1026hPa SE 2.0mph /  3.2km/h 2.0mph /  3.2km/h 70% 0.00in /  0mm meteobridge W/m2
11:54 46.0 °F /  7.8 °C 36.5 °F /  2.5 °C 30.30in /  1026hPa Calm   7.0mph /  11.3km/h 69% 0.00in /  0mm meteobridge W/m2
11:59 45.9 °F /  7.7 °C 36.0 °F /  2.2 °C 30.29in /  1025.6hPa ESE 0.9mph /  1.4km/h 5.0mph /  8km/h 68% 0.00in /  0mm meteobridge W/m2
12:04 46.0 °F /  7.8 °C 36.1 °F /  2.3 °C 30.29in /  1025.6hPa Calm   8.0mph /  12.9km/h 68% 0.00in /  0mm meteobridge W/m2
12:09 46.2 °F /  7.9 °C 36.0 °F /  2.2 °C 30.29in /  1025.6hPa SSE 6.9mph /  11.1km/h 8.0mph /  12.9km/h 67% 0.00in /  0mm meteobridge W/m2
12:14 46.2 °F /  7.9 °C 36.0 °F /  2.2 °C 30.29in /  1025.6hPa South 4.9mph /  7.9km/h 5.0mph /  8km/h 67% 0.00in /  0mm meteobridge W/m2
12:19 46.6 °F /  8.1 °C 35.8 °F /  2.1 °C 30.29in /  1025.6hPa Calm   5.0mph /  8km/h 66% 0.00in /  0mm meteobridge W/m2
12:24 46.4 °F /  8 °C 35.6 °F /  2 °C 30.29in /  1025.6hPa SE 6.9mph /  11.1km/h 7.0mph /  11.3km/h 66% 0.00in /  0mm meteobridge W/m2
12:29 46.4 °F /  8 °C 35.6 °F /  2 °C 30.29in /  1025.6hPa ESE 4.0mph /  6.4km/h 7.0mph /  11.3km/h 66% 0.00in /  0mm meteobridge W/m2
12:34 46.2 °F /  7.9 °C 35.4 °F /  1.9 °C 30.28in /  1025.3hPa ESE 2.0mph /  3.2km/h 9.0mph /  14.5km/h 66% 0.00in /  0mm meteobridge W/m2
12:39 46.2 °F /  7.9 °C 35.4 °F /  1.9 °C 30.27in /  1024.9hPa ESE 0.9mph /  1.4km/h 7.0mph /  11.3km/h 66% 0.00in /  0mm meteobridge W/m2
12:44 46.2 °F /  7.9 °C 35.4 °F /  1.9 °C 30.27in /  1024.9hPa SSE 4.0mph /  6.4km/h 6.0mph /  9.7km/h 66% 0.00in /  0mm meteobridge W/m2
12:49 46.4 °F /  8 °C 35.6 °F /  2 °C 30.27in /  1024.9hPa Calm   6.0mph /  9.7km/h 66% 0.00in /  0mm meteobridge W/m2
12:54 46.6 °F /  8.1 °C 35.8 °F /  2.1 °C 30.26in /  1024.6hPa ESE 0.9mph /  1.4km/h 1.0mph /  1.6km/h 66% 0.00in /  0mm meteobridge W/m2
12:59 46.8 °F /  8.2 °C 36.0 °F /  2.2 °C 30.26in /  1024.6hPa ESE 2.0mph /  3.2km/h 4.0mph /  6.4km/h 66% 0.00in /  0mm meteobridge W/m2
13:04 46.8 °F /  8.2 °C 36.0 °F /  2.2 °C 30.26in /  1024.6hPa Calm   7.0mph /  11.3km/h 66% 0.00in /  0mm meteobridge W/m2
13:09 46.6 °F /  8.1 °C 35.4 °F /  1.9 °C 30.26in /  1024.6hPa SE 4.9mph /  7.9km/h 9.0mph /  14.5km/h 65% 0.00in /  0mm meteobridge W/m2
13:14 46.6 °F /  8.1 °C 35.4 °F /  1.9 °C 30.26in /  1024.6hPa SSE 4.0mph /  6.4km/h 8.0mph /  12.9km/h 65% 0.00in /  0mm meteobridge W/m2
13:19 46.4 °F /  8 °C 35.6 °F /  2 °C 30.26in /  1024.6hPa Calm   5.0mph /  8km/h 66% 0.00in /  0mm meteobridge W/m2
13:24 46.6 °F /  8.1 °C 35.8 °F /  2.1 °C 30.26in /  1024.6hPa East 2.9mph /  4.7km/h 6.0mph /  9.7km/h 66% 0.00in /  0mm meteobridge W/m2
13:29 46.6 °F /  8.1 °C 35.8 °F /  2.1 °C 30.26in /  1024.6hPa East 4.0mph /  6.4km/h 6.0mph /  9.7km/h 66% 0.00in /  0mm meteobridge W/m2
13:34 46.6 °F /  8.1 °C 36.1 °F /  2.3 °C 30.25in /  1024.3hPa SE 2.0mph /  3.2km/h 15.0mph /  24.1km/h 67% 0.00in /  0mm meteobridge W/m2
13:39 46.4 °F /  8 °C 35.6 °F /  2 °C 30.25in /  1024.3hPa Calm   2.0mph /  3.2km/h 66% 0.00in /  0mm meteobridge W/m2
13:44 46.2 °F /  7.9 °C 35.4 °F /  1.9 °C 30.24in /  1023.9hPa Calm   6.0mph /  9.7km/h 66% 0.00in /  0mm meteobridge W/m2
13:49 46.2 °F /  7.9 °C 36.0 °F /  2.2 °C 30.24in /  1023.9hPa SE 0.9mph /  1.4km/h 2.0mph /  3.2km/h 67% 0.00in /  0mm meteobridge W/m2
13:54 46.6 °F /  8.1 °C 36.1 °F /  2.3 °C 30.24in /  1023.9hPa SSE 2.0mph /  3.2km/h 6.0mph /  9.7km/h 67% 0.00in /  0mm meteobridge W/m2
13:59 46.4 °F /  8 °C 36.0 °F /  2.2 °C 30.24in /  1023.9hPa Calm   4.0mph /  6.4km/h 67% 0.00in /  0mm meteobridge W/m2
14:04 46.4 °F /  8 °C 36.0 °F /  2.2 °C 30.24in /  1023.9hPa Calm   4.0mph /  6.4km/h 67% 0.00in /  0mm meteobridge W/m2
14:09 46.2 °F /  7.9 °C 36.0 °F /  2.2 °C 30.23in /  1023.6hPa ESE 4.0mph /  6.4km/h 4.0mph /  6.4km/h 67% 0.00in /  0mm meteobridge W/m2
14:14 46.2 °F /  7.9 °C 36.0 °F /  2.2 °C 30.23in /  1023.6hPa ESE 4.0mph /  6.4km/h 4.0mph /  6.4km/h 67% 0.00in /  0mm meteobridge W/m2
14:19 46.2 °F /  7.9 °C 36.3 °F /  2.4 °C 30.23in /  1023.6hPa ESE 0.9mph /  1.4km/h 4.0mph /  6.4km/h 68% 0.00in /  0mm meteobridge W/m2
14:24 46.0 °F /  7.8 °C 36.1 °F /  2.3 °C 30.23in /  1023.6hPa SE 4.0mph /  6.4km/h 4.0mph /  6.4km/h 68% 0.00in /  0mm meteobridge W/m2
14:29 46.0 °F /  7.8 °C 36.1 °F /  2.3 °C 30.22in /  1023.2hPa SE 0.9mph /  1.4km/h 6.0mph /  9.7km/h 68% 0.00in /  0mm meteobridge W/m2
14:34 45.9 °F /  7.7 °C 36.0 °F /  2.2 °C 30.22in /  1023.2hPa Calm   1.0mph /  1.6km/h 68% 0.00in /  0mm meteobridge W/m2
14:39 45.9 °F /  7.7 °C 36.3 °F /  2.4 °C 30.22in /  1023.2hPa Calm   2.0mph /  3.2km/h 69% 0.00in /  0mm meteobridge W/m2
14:44 45.9 °F /  7.7 °C 36.3 °F /  2.4 °C 30.22in /  1023.2hPa SE 4.9mph /  7.9km/h 5.0mph /  8km/h 69% 0.00in /  0mm meteobridge W/m2
14:49 45.9 °F /  7.7 °C 36.3 °F /  2.4 °C 30.22in /  1023.2hPa SE 0.9mph /  1.4km/h 4.0mph /  6.4km/h 69% 0.00in /  0mm meteobridge W/m2
14:54 45.9 °F /  7.7 °C 36.3 °F /  2.4 °C 30.22in /  1023.2hPa SE 2.0mph /  3.2km/h 4.0mph /  6.4km/h 69% 0.00in /  0mm meteobridge W/m2
14:59 46.0 °F /  7.8 °C 36.5 °F /  2.5 °C 30.22in /  1023.2hPa ESE 2.0mph /  3.2km/h 6.0mph /  9.7km/h 69% 0.00in /  0mm meteobridge W/m2
15:04 45.9 °F /  7.7 °C 36.3 °F /  2.4 °C 30.22in /  1023.2hPa Calm   6.0mph /  9.7km/h 69% 0.00in /  0mm meteobridge W/m2
15:09 45.9 °F /  7.7 °C 36.7 °F /  2.6 °C 30.22in /  1023.2hPa Calm   1.0mph /  1.6km/h 70% 0.00in /  0mm meteobridge W/m2
15:14 46.0 °F /  7.8 °C 36.5 °F /  2.5 °C 30.22in /  1023.2hPa ESE 4.0mph /  6.4km/h 4.0mph /  6.4km/h 69% 0.00in /  0mm meteobridge W/m2
15:19 46.0 °F /  7.8 °C 36.5 °F /  2.5 °C 30.21in /  1022.9hPa ESE 2.0mph /  3.2km/h 5.0mph /  8km/h 69% 0.00in /  0mm meteobridge W/m2
15:24 45.9 °F /  7.7 °C 36.0 °F /  2.2 °C 30.21in /  1022.9hPa SE 2.0mph /  3.2km/h 8.0mph /  12.9km/h 68% 0.00in /  0mm meteobridge W/m2
15:29 45.9 °F /  7.7 °C 36.0 °F /  2.2 °C 30.20in /  1022.6hPa SSE 6.0mph /  9.7km/h 9.0mph /  14.5km/h 68% 0.00in /  0mm meteobridge W/m2
15:34 45.7 °F /  7.6 °C 35.8 °F /  2.1 °C 30.20in /  1022.6hPa South 4.0mph /  6.4km/h 10.0mph /  16.1km/h 68% 0.00in /  0mm meteobridge W/m2
15:39 45.5 °F /  7.5 °C 35.6 °F /  2 °C 30.20in /  1022.6hPa Calm   5.0mph /  8km/h 68% 0.00in /  0mm meteobridge W/m2
15:44 45.5 °F /  7.5 °C 36.0 °F /  2.2 °C 30.20in /  1022.6hPa Calm   5.0mph /  8km/h 69% 0.00in /  0mm meteobridge W/m2
15:49 45.5 °F /  7.5 °C 36.0 °F /  2.2 °C 30.19in /  1022.2hPa Calm   5.0mph /  8km/h 69% 0.00in /  0mm meteobridge W/m2
15:54 45.3 °F /  7.4 °C 35.8 °F /  2.1 °C 30.19in /  1022.2hPa SE 0.9mph /  1.4km/h 5.0mph /  8km/h 69% 0.00in /  0mm meteobridge W/m2
15:59 45.3 °F /  7.4 °C 35.8 °F /  2.1 °C 30.19in /  1022.2hPa Calm   2.0mph /  3.2km/h 69% 0.00in /  0mm meteobridge W/m2
16:04 45.1 °F /  7.3 °C 35.6 °F /  2 °C 30.18in /  1021.9hPa ESE 2.0mph /  3.2km/h 7.0mph /  11.3km/h 69% 0.00in /  0mm meteobridge W/m2
16:09 45.1 °F /  7.3 °C 36.0 °F /  2.2 °C 30.19in /  1022.2hPa Calm     70% 0.00in /  0mm meteobridge W/m2
16:14 45.1 °F /  7.3 °C 36.0 °F /  2.2 °C 30.18in /  1021.9hPa ESE 2.0mph /  3.2km/h 5.0mph /  8km/h 70% 0.00in /  0mm meteobridge W/m2
16:19 45.1 °F /  7.3 °C 36.3 °F /  2.4 °C 30.18in /  1021.9hPa Calm   1.0mph /  1.6km/h 71% 0.00in /  0mm meteobridge W/m2
16:24 45.1 °F /  7.3 °C 36.3 °F /  2.4 °C 30.18in /  1021.9hPa SE 4.0mph /  6.4km/h 5.0mph /  8km/h 71% 0.00in /  0mm meteobridge W/m2
16:29 45.3 °F /  7.4 °C 36.5 °F /  2.5 °C 30.18in /  1021.9hPa Calm     71% 0.00in /  0mm meteobridge W/m2
16:34 45.3 °F /  7.4 °C 36.5 °F /  2.5 °C 30.18in /  1021.9hPa ESE 0.9mph /  1.4km/h 4.0mph /  6.4km/h 71% 0.00in /  0mm meteobridge W/m2
16:39 45.3 °F /  7.4 °C 36.5 °F /  2.5 °C 30.17in /  1021.6hPa Calm   5.0mph /  8km/h 71% 0.00in /  0mm meteobridge W/m2
16:44 45.3 °F /  7.4 °C 36.5 °F /  2.5 °C 30.17in /  1021.6hPa East 4.9mph /  7.9km/h 9.0mph /  14.5km/h 71% 0.00in /  0mm meteobridge W/m2
16:49 45.3 °F /  7.4 °C 36.5 °F /  2.5 °C 30.18in /  1021.9hPa SE 4.0mph /  6.4km/h 6.0mph /  9.7km/h 71% 0.00in /  0mm meteobridge W/m2
16:54 45.3 °F /  7.4 °C 36.5 °F /  2.5 °C 30.18in /  1021.9hPa East 0.9mph /  1.4km/h 7.0mph /  11.3km/h 71% 0.00in /  0mm meteobridge W/m2
16:59 45.3 °F /  7.4 °C 36.9 °F /  2.7 °C 30.18in /  1021.9hPa SE 4.0mph /  6.4km/h 5.0mph /  8km/h 72% 0.00in /  0mm meteobridge W/m2
17:04 45.0 °F /  7.2 °C 36.9 °F /  2.7 °C 30.18in /  1021.9hPa SE 0.9mph /  1.4km/h 13.0mph /  20.9km/h 73% 0.00in /  0mm meteobridge W/m2
17:09 44.8 °F /  7.1 °C 37.0 °F /  2.8 °C 30.18in /  1021.9hPa SE 2.0mph /  3.2km/h 5.0mph /  8km/h 74% 0.00in /  0mm meteobridge W/m2
17:14 44.4 °F /  6.9 °C 37.0 °F /  2.8 °C 30.19in /  1022.2hPa SE 2.0mph /  3.2km/h 7.0mph /  11.3km/h 75% 0.00in /  0mm meteobridge W/m2
17:19 44.2 °F /  6.8 °C 36.9 °F /  2.7 °C 30.19in /  1022.2hPa SSE 2.0mph /  3.2km/h 5.0mph /  8km/h 75% 0.00in /  0mm meteobridge W/m2
17:24 43.9 °F /  6.6 °C 36.5 °F /  2.5 °C 30.19in /  1022.2hPa Calm   2.0mph /  3.2km/h 75% 0.00in /  0mm meteobridge W/m2
17:29 43.2 °F /  6.2 °C 35.4 °F /  1.9 °C 30.18in /  1021.9hPa Calm   11.0mph /  17.7km/h 74% 0.00in /  0mm meteobridge W/m2
17:34 43.0 °F /  6.1 °C 34.9 °F /  1.6 °C 30.18in /  1021.9hPa ESE 2.0mph /  3.2km/h 5.0mph /  8km/h 73% 0.00in /  0mm meteobridge W/m2
17:39 42.6 °F /  5.9 °C 34.5 °F /  1.4 °C 30.17in /  1021.6hPa Calm   5.0mph /  8km/h 73% 0.00in /  0mm meteobridge W/m2
17:44 42.6 °F /  5.9 °C 34.5 °F /  1.4 °C 30.18in /  1021.9hPa SE 2.0mph /  3.2km/h 4.0mph /  6.4km/h 73% 0.00in /  0mm meteobridge W/m2
17:49 42.4 °F /  5.8 °C 34.0 °F /  1.1 °C 30.17in /  1021.6hPa Calm   2.0mph /  3.2km/h 72% 0.00in /  0mm meteobridge W/m2
17:54 42.3 °F /  5.7 °C 33.3 °F /  0.7 °C 30.17in /  1021.6hPa Calm   5.0mph /  8km/h 70% 0.01in /  0.25mm meteobridge W/m2
17:59 42.1 °F /  5.6 °C 32.4 °F /  0.2 °C 30.17in /  1021.6hPa Calm     68% 0.01in /  0.25mm meteobridge W/m2
18:04 41.7 °F /  5.4 °C 31.6 °F /  -0.2 °C 30.16in /  1021.2hPa SSE 2.0mph /  3.2km/h 7.0mph /  11.3km/h 67% 0.01in /  0.25mm meteobridge W/m2
18:09 41.7 °F /  5.4 °C 31.6 °F /  -0.2 °C 30.17in /  1021.6hPa Calm   5.0mph /  8km/h 67% 0.01in /  0.25mm meteobridge W/m2
18:14 41.7 °F /  5.4 °C 31.6 °F /  -0.2 °C 30.16in /  1021.2hPa SE 4.0mph /  6.4km/h 6.0mph /  9.7km/h 67% 0.01in /  0.25mm meteobridge W/m2
18:19 41.7 °F /  5.4 °C 32.0 °F /  0 °C 30.16in /  1021.2hPa ESE 0.9mph /  1.4km/h 8.0mph /  12.9km/h 68% 0.01in /  0.25mm meteobridge W/m2
18:23 41.7 °F /  5.4 °C 32.4 °F /  0.2 °C 30.15in /  1020.9hPa ESE 6.0mph /  9.7km/h 11.0mph /  17.7km/h 69% 0.01in /  0.25mm meteobridge W/m2
18:29 41.7 °F /  5.4 °C 32.7 °F /  0.4 °C 30.14in /  1020.5hPa East 4.9mph /  7.9km/h 7.0mph /  11.3km/h 70% 0.01in /  0.25mm meteobridge W/m2
18:34 41.9 °F /  5.5 °C 32.9 °F /  0.5 °C 30.14in /  1020.5hPa SE 0.9mph /  1.4km/h 6.0mph /  9.7km/h 70% 0.01in /  0.25mm meteobridge W/m2
18:39 41.9 °F /  5.5 °C 32.9 °F /  0.5 °C 30.14in /  1020.5hPa Calm   7.0mph /  11.3km/h 70% 0.01in /  0.25mm meteobridge W/m2
18:44 41.9 °F /  5.5 °C 32.9 °F /  0.5 °C 30.15in /  1020.9hPa Calm   9.0mph /  14.5km/h 70% 0.01in /  0.25mm meteobridge W/m2
18:49 41.7 °F /  5.4 °C 32.4 °F /  0.2 °C 30.15in /  1020.9hPa ESE 0.9mph /  1.4km/h 1.0mph /  1.6km/h 69% 0.01in /  0.25mm meteobridge W/m2
18:54 41.7 °F /  5.4 °C 32.4 °F /  0.2 °C 30.15in /  1020.9hPa Calm     69% 0.00in /  0mm meteobridge W/m2
18:59 41.9 °F /  5.5 °C 32.5 °F /  0.3 °C 30.15in /  1020.9hPa SE 0.9mph /  1.4km/h 8.0mph /  12.9km/h 69% 0.00in /  0mm meteobridge W/m2
19:04 41.9 °F /  5.5 °C 32.5 °F /  0.3 °C 30.14in /  1020.5hPa Calm     69% 0.00in /  0mm meteobridge W/m2
19:09 42.1 °F /  5.6 °C 32.7 °F /  0.4 °C 30.14in /  1020.5hPa Calm     69% 0.00in /  0mm meteobridge W/m2
19:14 42.1 °F /  5.6 °C 33.1 °F /  0.6 °C 30.13in /  1020.2hPa East 2.0mph /  3.2km/h 5.0mph /  8km/h 70% 0.00in /  0mm meteobridge W/m2
19:18 42.3 °F /  5.7 °C 33.6 °F /  0.9 °C 30.13in /  1020.2hPa Calm   4.0mph /  6.4km/h 71% 0.00in /  0mm meteobridge W/m2
19:24 42.3 °F /  5.7 °C 33.6 °F /  0.9 °C 30.12in /  1019.9hPa ESE 4.9mph /  7.9km/h 13.0mph /  20.9km/h 71% 0.00in /  0mm meteobridge W/m2
19:29 41.7 °F /  5.4 °C 32.7 °F /  0.4 °C 30.13in /  1020.2hPa ESE 8.1mph /  13km/h 9.0mph /  14.5km/h 70% 0.00in /  0mm meteobridge W/m2
19:34 41.5 °F /  5.3 °C 32.2 °F /  0.1 °C 30.12in /  1019.9hPa Calm   8.0mph /  12.9km/h 69% 0.00in /  0mm meteobridge W/m2
19:39 41.4 °F /  5.2 °C 31.6 °F /  -0.2 °C 30.12in /  1019.9hPa Calm   6.0mph /  9.7km/h 68% 0.00in /  0mm meteobridge W/m2
19:44 41.2 °F /  5.1 °C 31.5 °F /  -0.3 °C 30.11in /  1019.5hPa Calm   6.0mph /  9.7km/h 68% 0.00in /  0mm meteobridge W/m2
19:49 40.8 °F /  4.9 °C 31.1 °F /  -0.5 °C 30.11in /  1019.5hPa Calm   4.0mph /  6.4km/h 68% 0.00in /  0mm meteobridge W/m2
19:54 40.6 °F /  4.8 °C 31.3 °F /  -0.4 °C 30.11in /  1019.5hPa SE 4.0mph /  6.4km/h 5.0mph /  8km/h 69% 0.00in /  0mm meteobridge W/m2
19:59 40.6 °F /  4.8 °C 31.3 °F /  -0.4 °C 30.12in /  1019.9hPa Calm   4.0mph /  6.4km/h 69% 0.00in /  0mm meteobridge W/m2
20:04 40.6 °F /  4.8 °C 31.3 °F /  -0.4 °C 30.12in /  1019.9hPa Calm   1.0mph /  1.6km/h 69% 0.00in /  0mm meteobridge W/m2
20:09 40.5 °F /  4.7 °C 31.5 °F /  -0.3 °C 30.12in /  1019.9hPa ESE 2.0mph /  3.2km/h 5.0mph /  8km/h 70% 0.00in /  0mm meteobridge W/m2
20:14 40.5 °F /  4.7 °C 31.5 °F /  -0.3 °C 30.11in /  1019.5hPa SE 2.0mph /  3.2km/h 9.0mph /  14.5km/h 70% 0.00in /  0mm meteobridge W/m2
20:19 40.3 °F /  4.6 °C 31.3 °F /  -0.4 °C 30.10in /  1019.2hPa ESE 0.9mph /  1.4km/h 7.0mph /  11.3km/h 70% 0.00in /  0mm meteobridge W/m2
20:24 40.3 °F /  4.6 °C 31.3 °F /  -0.4 °C 30.10in /  1019.2hPa Calm   7.0mph /  11.3km/h 70% 0.00in /  0mm meteobridge W/m2
20:29 39.9 °F /  4.4 °C 30.6 °F /  -0.8 °C 30.11in /  1019.5hPa SE 6.9mph /  11.1km/h 8.0mph /  12.9km/h 69% 0.00in /  0mm meteobridge W/m2
20:34 39.9 °F /  4.4 °C 30.6 °F /  -0.8 °C 30.09in /  1018.8hPa Calm   5.0mph /  8km/h 69% 0.00in /  0mm meteobridge W/m2
20:39 39.7 °F /  4.3 °C 30.4 °F /  -0.9 °C 30.09in /  1018.8hPa Calm   7.0mph /  11.3km/h 69% 0.00in /  0mm meteobridge W/m2
20:44 39.6 °F /  4.2 °C 29.8 °F /  -1.2 °C 30.09in /  1018.8hPa SE 2.0mph /  3.2km/h 4.0mph /  6.4km/h 68% 0.00in /  0mm meteobridge W/m2
20:49 39.6 °F /  4.2 °C 29.5 °F /  -1.4 °C 30.09in /  1018.8hPa Calm   4.0mph /  6.4km/h 67% 0.00in /  0mm meteobridge W/m2
20:54 39.4 °F /  4.1 °C 29.3 °F /  -1.5 °C 30.09in /  1018.8hPa East 0.9mph /  1.4km/h 6.0mph /  9.7km/h 67% 0.00in /  0mm meteobridge W/m2
20:59 39.4 °F /  4.1 °C 28.9 °F /  -1.7 °C 30.09in /  1018.8hPa ESE 6.9mph /  11.1km/h 7.0mph /  11.3km/h 66% 0.00in /  0mm meteobridge W/m2
21:04 39.2 °F /  4 °C 29.1 °F /  -1.6 °C 30.09in /  1018.8hPa SE 8.1mph /  13km/h 8.0mph /  12.9km/h 67% 0.00in /  0mm meteobridge W/m2
21:09 39.0 °F /  3.9 °C 28.9 °F /  -1.7 °C 30.08in /  1018.5hPa SE 8.1mph /  13km/h 8.0mph /  12.9km/h 67% 0.00in /  0mm meteobridge W/m2
21:14 39.0 °F /  3.9 °C 28.9 °F /  -1.7 °C 30.09in /  1018.8hPa Calm   8.0mph /  12.9km/h 67% 0.00in /  0mm meteobridge W/m2
21:19 39.0 °F /  3.9 °C 28.9 °F /  -1.7 °C 30.08in /  1018.5hPa SE 6.0mph /  9.7km/h 8.0mph /  12.9km/h 67% 0.00in /  0mm meteobridge W/m2
21:24 39.0 °F /  3.9 °C 29.7 °F /  -1.3 °C 30.08in /  1018.5hPa SE 2.0mph /  3.2km/h 7.0mph /  11.3km/h 69% 0.00in /  0mm meteobridge W/m2
21:29 39.0 °F /  3.9 °C 29.7 °F /  -1.3 °C 30.08in /  1018.5hPa SE 8.9mph /  14.3km/h 12.0mph /  19.3km/h 69% 0.00in /  0mm meteobridge W/m2
21:34 39.0 °F /  3.9 °C 30.0 °F /  -1.1 °C 30.08in /  1018.5hPa Calm   6.0mph /  9.7km/h 70% 0.00in /  0mm meteobridge W/m2
21:39 39.0 °F /  3.9 °C 30.0 °F /  -1.1 °C 30.09in /  1018.8hPa SE 2.0mph /  3.2km/h 8.0mph /  12.9km/h 70% 0.00in /  0mm meteobridge W/m2
21:44 39.0 °F /  3.9 °C 30.0 °F /  -1.1 °C 30.09in /  1018.8hPa Calm   8.0mph /  12.9km/h 70% 0.00in /  0mm meteobridge W/m2
21:49 39.0 °F /  3.9 °C 30.0 °F /  -1.1 °C 30.08in /  1018.5hPa SE 4.9mph /  7.9km/h 6.0mph /  9.7km/h 70% 0.00in /  0mm meteobridge W/m2
21:54 38.8 °F /  3.8 °C 29.8 °F /  -1.2 °C 30.08in /  1018.5hPa ESE 8.1mph /  13km/h 10.0mph /  16.1km/h 70% 0.00in /  0mm meteobridge W/m2
21:59 38.8 °F /  3.8 °C 29.8 °F /  -1.2 °C 30.09in /  1018.8hPa SSE 6.0mph /  9.7km/h 12.0mph /  19.3km/h 70% 0.00in /  0mm meteobridge W/m2
22:04 38.8 °F /  3.8 °C 29.8 °F /  -1.2 °C 30.09in /  1018.8hPa ESE 4.0mph /  6.4km/h 17.0mph /  27.4km/h 70% 0.00in /  0mm meteobridge W/m2
22:09 38.7 °F /  3.7 °C 29.7 °F /  -1.3 °C 30.09in /  1018.8hPa SE 4.0mph /  6.4km/h 9.0mph /  14.5km/h 70% 0.00in /  0mm meteobridge W/m2
22:14 38.7 °F /  3.7 °C 29.7 °F /  -1.3 °C 30.10in /  1019.2hPa ESE 2.0mph /  3.2km/h 5.0mph /  8km/h 70% 0.00in /  0mm meteobridge W/m2
22:19 38.7 °F /  3.7 °C 29.7 °F /  -1.3 °C 30.10in /  1019.2hPa SE 0.9mph /  1.4km/h 6.0mph /  9.7km/h 70% 0.00in /  0mm meteobridge W/m2
22:24 38.7 °F /  3.7 °C 29.7 °F /  -1.3 °C 30.09in /  1018.8hPa Calm   1.0mph /  1.6km/h 70% 0.00in /  0mm meteobridge W/m2
22:29 38.7 °F /  3.7 °C 29.3 °F /  -1.5 °C 30.09in /  1018.8hPa Calm     69% 0.00in /  0mm meteobridge W/m2
22:34 38.7 °F /  3.7 °C 29.3 °F /  -1.5 °C 30.09in /  1018.8hPa Calm   4.0mph /  6.4km/h 69% 0.00in /  0mm meteobridge W/m2
22:39 38.8 °F /  3.8 °C 29.5 °F /  -1.4 °C 30.09in /  1018.8hPa Calm   6.0mph /  9.7km/h 69% 0.00in /  0mm meteobridge W/m2
22:44 38.8 °F /  3.8 °C 29.1 °F /  -1.6 °C 30.09in /  1018.8hPa Calm   2.0mph /  3.2km/h 68% 0.00in /  0mm meteobridge W/m2
22:49 38.8 °F /  3.8 °C 29.1 °F /  -1.6 °C 30.09in /  1018.8hPa ESE 4.0mph /  6.4km/h 6.0mph /  9.7km/h 68% 0.00in /  0mm meteobridge W/m2
22:54 38.8 °F /  3.8 °C 28.8 °F /  -1.8 °C 30.09in /  1018.8hPa ESE 2.0mph /  3.2km/h 7.0mph /  11.3km/h 67% 0.00in /  0mm meteobridge W/m2
22:59 38.7 °F /  3.7 °C 28.2 °F /  -2.1 °C 30.10in /  1019.2hPa ESE 0.9mph /  1.4km/h 8.0mph /  12.9km/h 66% 0.00in /  0mm meteobridge W/m2
23:04 38.7 °F /  3.7 °C 28.2 °F /  -2.1 °C 30.09in /  1018.8hPa SE 2.0mph /  3.2km/h 4.0mph /  6.4km/h 66% 0.00in /  0mm meteobridge W/m2
23:09 38.7 °F /  3.7 °C 28.2 °F /  -2.1 °C 30.08in /  1018.5hPa SE 0.9mph /  1.4km/h 7.0mph /  11.3km/h 66% 0.00in /  0mm meteobridge W/m2
23:14 38.7 °F /  3.7 °C 28.2 °F /  -2.1 °C 30.07in /  1018.2hPa ESE 0.9mph /  1.4km/h 1.0mph /  1.6km/h 66% 0.00in /  0mm meteobridge W/m2
23:19 38.7 °F /  3.7 °C 28.2 °F /  -2.1 °C 30.06in /  1017.8hPa Calm     66% 0.00in /  0mm meteobridge W/m2
23:24 38.5 °F /  3.6 °C 28.0 °F /  -2.2 °C 30.07in /  1018.2hPa Calm   2.0mph /  3.2km/h 66% 0.00in /  0mm meteobridge W/m2
23:29 38.5 °F /  3.6 °C 28.0 °F /  -2.2 °C 30.08in /  1018.5hPa Calm   4.0mph /  6.4km/h 66% 0.00in /  0mm meteobridge W/m2
23:34 38.3 °F /  3.5 °C 27.9 °F /  -2.3 °C 30.07in /  1018.2hPa Calm   1.0mph /  1.6km/h 66% 0.00in /  0mm meteobridge W/m2
23:39 38.3 °F /  3.5 °C 27.9 °F /  -2.3 °C 30.06in /  1017.8hPa Calm   5.0mph /  8km/h 66% 0.00in /  0mm meteobridge W/m2
23:44 38.5 °F /  3.6 °C 28.0 °F /  -2.2 °C 30.07in /  1018.2hPa SE 8.1mph /  13km/h 9.0mph /  14.5km/h 66% 0.00in /  0mm meteobridge W/m2
23:49 38.5 °F /  3.6 °C 28.4 °F /  -2 °C 30.06in /  1017.8hPa Calm   8.0mph /  12.9km/h 67% 0.00in /  0mm meteobridge W/m2
23:54 38.7 °F /  3.7 °C 28.9 °F /  -1.7 °C 30.05in /  1017.5hPa East 0.9mph /  1.4km/h 8.0mph /  12.9km/h 68% 0.00in /  0mm meteobridge W/m2
23:59 38.7 °F /  3.7 °C 28.9 °F /  -1.7 °C 30.06in /  1017.8hPa Calm   5.0mph /  8km/h 68% 0.00in /  0mm meteobridge W/m2
EllijayWeather
Compliments of Weather Underground - 2.5 mb